Airfield :
LOGIN :

Register | Disclaimer

   EN    FR    IT 

 










Legend :    VFR   Marginal VFR   IFR   Intensive IFR   Very Intensive IFR
Visi :
Ceiling :
>= 8 km
>= 3000ft
5 to 8 km
1000 to 3000 ft
1500m to 5 km
500 to 1000 ft
800 to 1500m
200 to 500 ft
< 800m
< 200 ft
Symbols :   Thunderstorms  Fog  Heavy snow  Heavy precipitations  Wind > 20 kt
SIGMETs :     Misc.  Thunderstorms  Icing  Turbulence  Mountain Waves  Volcanic Ashes







- Airport Elevation : 74 ft
- IATA code : EIN


EHEH - Eindhoven

CURRENT METAR :
  • 221125Z AUTO 12011KT 080V180 9999 NCD 24/00 Q1008 BLU 12012G22KT CAVOK

EXPIRED METARs :
  • 221055Z AUTO 12012KT 080V170 9999 NCD 24/00 Q1008 BLU 12012G22KT CAVOK
  • 221026Z AUTO 12010KT 080V180 9999 NCD 24/01 Q1009 BLU 11009KT CAVOK BECMG 11012G22KT
  • 221025Z AUTO 11009KT 070V160 9999 NCD 24/00 Q1009 BLU 11009KT CAVOK
  • 220955Z AUTO 11009KT 060V140 9999 NCD 23/03 Q1009 BLU 11009KT CAVOK
  • 220925Z AUTO VRB07KT 9999 BKN340 22/04 Q1009 BLU 11009KT CAVOK
  • 220855Z AUTO 10007KT 080V150 9999 OVC190 20/04 Q1010 BLU 11007KT CAVOK

TAF TAF EHEH
Valid from the 22 at 12:00 until the 23 at 18:00 UTC


221102Z 2212/2318 12012G22KT CAVOK
BECMG 2217/2219 08010KT
BECMG 2306/2308 09012G22KT
No reported NOTAMs for that airfield.



MET'MAP, your aeronautical weather chart ! - Copyright ORBIFLY December 2007 - Disclaimer

ORBIFLY MET'MAP TEAM :

Programming & Development : Alexandra Zaïnal
Concept & Development : Baudouin d'Aumeries
Co-Development & Prog : Marc-Olivier Méhu
Technical & hardware support : Manuel Goepfert

Contact : metmap@orbifly.com




SOURCES & CREDITS :

   NOAA